Terminal Aerodrome Forecast
Issued by NWS Sioux Falls, SD

Home | Current Version | Previous Version | Text Only | Print | Product List | Glossary On
Versions: 1 2 3 4 5 6 7 8 9 10 11 12 13 14 15
842
FTUS43 KFSD 232320
TAFFSD
TAF
KFSD 232320Z 2400/2424 35013KT P6SM SCT030 BKN060
     FM240200 35009KT P6SM BKN060
     FM241000 35006KT P6SM BKN012
     FM241500 03007KT P6SM SCT035
     FM241900 07006KT P6SM SCT045
     FM242200 11006KT P6SM SCT045=

USA.gov is the U.S. government's official web portal to all federal, state and local government web resources and services.